Kampenhout, Belgium
Current Conditions -  °F | °C
As of 2:50 PM on Saturday 25 Oct 2014 (Local Time) from EBBR Reporting Station
Broken Clouds Broken Clouds  
Wind Chill: 57°   Ceiling: 2400
Heat Index: 57°   Visibility: 6mi
Dew Point: 52°   Wind: 8mph
Humidity: 82%   Direction: 250°WSW
Pressure: 30.09"   Gusts: NA
Location:  50.94°N, 4.55°E
Report Text: EBBR 251250Z 25007KT 9999 FEW010 SCT017 BKN024 14/11 Q1019 NOSIG
Loading
Personal Weather Stations






























Interactive Weather Map
Tropical Storm Tracking
New forecast layout! Learn more

10-Day Weather Forecast

Advertisements
Track Severe Weather on mobile